| Date | Time | Temp. (oF) | Dew Point (oF) | Rel. Hum. (%) | Press. (in.) | Wind Dir. | Wind Speed (mph) | Hourly Rainfall (in.) |
|
|---|---|---|---|---|---|---|---|---|---|
| 1 | 06/20 | 00:00 | 78 | 70 | 77 | 29.92 | SW | 3 | 0.00 |
| 2 | 06/19 | 23:00 | 78 | 69 | 75 | 29.91 | SSW | 4 | 0.00 |
| 3 | 06/19 | 22:00 | 79 | 70 | 75 | 29.92 | SSW | 7 | 0.00 |
| 4 | 06/19 | 21:00 | 80 | 70 | 73 | 29.91 | SSW | 2 | 0.00 |
| 5 | 06/19 | 20:00 | 83 | 70 | 67 | 29.91 | S | 4 | 0.00 |
| 6 | 06/19 | 19:00 | 86 | 71 | 63 | 29.90 | SW | 4 | 0.00 |
| 7 | 06/19 | 18:00 | 88 | 71 | 59 | 29.92 | S | 5 | 0.00 |
| 8 | 06/19 | 17:00 | 89 | 69 | 53 | 29.94 | SSW | 4 | 0.00 |
| 9 | 06/19 | 16:00 | 89 | 72 | 58 | 29.95 | WSW | 5 | 0.00 |
| 10 | 06/19 | 15:00 | 88 | 69 | 55 | 29.97 | SSW | 3 | 0.00 |
| 11 | 06/19 | 14:00 | 88 | 72 | 60 | 30.01 | SSW | 7 | 0.00 |
| 12 | 06/19 | 13:00 | 86 | 72 | 64 | 30.02 | SW | 2 | 0.00 |
| 13 | 06/19 | 12:00 | 83 | 69 | 63 | 30.04 | SSW | 10 | 0.00 |
| 14 | 06/19 | 11:00 | 80 | 68 | 68 | 30.05 | S | 3 | 0.00 |
| 15 | 06/19 | 10:00 | 77 | 69 | 77 | 30.06 | SSE | 4 | 0.00 |
| 16 | 06/19 | 09:00 | 75 | 68 | 80 | 30.07 | SW | 6 | 0.00 |
| 17 | 06/19 | 08:00 | 67 | 65 | 95 | 30.08 | ESE | 0 | 0.00 |
| 18 | 06/19 | 07:00 | 63 | 62 | 98 | 30.08 | ENE | 0 | 0.00 |
| 19 | 06/19 | 06:00 | 61 | 60 | 98 | 30.08 | ENE | 0 | 0.00 |
| 20 | 06/19 | 05:00 | 61 | 59 | 96 | 30.08 | ENE | 0 | 0.00 |
| 21 | 06/19 | 04:00 | 62 | 60 | 94 | 30.08 | ENE | 0 | 0.00 |
| 22 | 06/19 | 03:00 | 63 | 60 | 91 | 30.08 | ESE | 0 | 0.00 |
| 23 | 06/19 | 02:00 | 65 | 61 | 89 | 30.07 | ESE | 0 | 0.00 |
| 24 | 06/19 | 01:00 | 66 | 61 | 84 | 30.07 | ESE | 0 | 0.00 |